sensor_id;sensor_type;location;lat;lon;timestamp;temperature;humidity
13086;DHT22;6609;49.882;8.664;2022-07-29T00:01:17;22.30;33.00
13086;DHT22;6609;49.882;8.664;2022-07-29T00:03:44;22.30;33.20
13086;DHT22;6609;49.882;8.664;2022-07-29T00:08:37;22.30;33.50
13086;DHT22;6609;49.882;8.664;2022-07-29T00:13:32;22.30;33.10
13086;DHT22;6609;49.882;8.664;2022-07-29T00:18:27;22.20;33.30
13086;DHT22;6609;49.882;8.664;2022-07-29T00:20:54;22.10;33.90
13086;DHT22;6609;49.882;8.664;2022-07-29T00:30:42;21.90;35.40
13086;DHT22;6609;49.882;8.664;2022-07-29T00:33:09;21.90;35.80
13086;DHT22;6609;49.882;8.664;2022-07-29T00:35:37;21.80;35.70
13086;DHT22;6609;49.882;8.664;2022-07-29T00:38:09;21.80;36.00
13086;DHT22;6609;49.882;8.664;2022-07-29T00:43:03;21.70;36.20
13086;DHT22;6609;49.882;8.664;2022-07-29T00:47:57;21.70;36.30
13086;DHT22;6609;49.882;8.664;2022-07-29T00:52:53;21.70;35.60
13086;DHT22;6609;49.882;8.664;2022-07-29T00:57:48;21.70;35.70
13086;DHT22;6609;49.882;8.664;2022-07-29T01:00:17;21.60;35.70
13086;DHT22;6609;49.882;8.664;2022-07-29T01:02:45;21.70;35.50
13086;DHT22;6609;49.882;8.664;2022-07-29T01:05:15;21.60;35.70
13086;DHT22;6609;49.882;8.664;2022-07-29T01:07:43;21.60;35.70
13086;DHT22;6609;49.882;8.664;2022-07-29T01:10:13;21.60;35.20
13086;DHT22;6609;49.882;8.664;2022-07-29T01:12:42;21.60;35.00
13086;DHT22;6609;49.882;8.664;2022-07-29T01:15:10;21.60;34.80
13086;DHT22;6609;49.882;8.664;2022-07-29T01:17:43;21.60;34.40
13086;DHT22;6609;49.882;8.664;2022-07-29T01:23:11;21.50;34.00
13086;DHT22;6609;49.882;8.664;2022-07-29T01:25:54;21.40;33.70
13086;DHT22;6609;49.882;8.664;2022-07-29T01:28:40;21.40;33.70
13086;DHT22;6609;49.882;8.664;2022-07-29T01:31:10;21.40;33.70
13086;DHT22;6609;49.882;8.664;2022-07-29T01:33:41;21.30;33.70
13086;DHT22;6609;49.882;8.664;2022-07-29T01:36:19;21.30;33.50
13086;DHT22;6609;49.882;8.664;2022-07-29T01:38:54;21.30;33.50
13086;DHT22;6609;49.882;8.664;2022-07-29T01:41:21;21.20;33.60
13086;DHT22;6609;49.882;8.664;2022-07-29T01:43:54;21.20;33.60
13086;DHT22;6609;49.882;8.664;2022-07-29T01:46:28;21.20;33.70
13086;DHT22;6609;49.882;8.664;2022-07-29T01:49:03;21.20;33.70
13086;DHT22;6609;49.882;8.664;2022-07-29T01:51:37;21.10;33.60
13086;DHT22;6609;49.882;8.664;2022-07-29T01:54:10;21.10;33.70
13086;DHT22;6609;49.882;8.664;2022-07-29T01:56:39;21.10;33.70
13086;DHT22;6609;49.882;8.664;2022-07-29T01:59:10;21.10;33.70
13086;DHT22;6609;49.882;8.664;2022-07-29T02:01:37;21.10;33.70
13086;DHT22;6609;49.882;8.664;2022-07-29T02:04:07;21.10;33.50
13086;DHT22;6609;49.882;8.664;2022-07-29T02:06:38;21.10;33.60
13086;DHT22;6609;49.882;8.664;2022-07-29T02:09:07;21.10;33.70
13086;DHT22;6609;49.882;8.664;2022-07-29T02:11:35;21.10;33.80
13086;DHT22;6609;49.882;8.664;2022-07-29T02:14:05;21.10;33.70
13086;DHT22;6609;49.882;8.664;2022-07-29T02:16:35;21.00;33.80
13086;DHT22;6609;49.882;8.664;2022-07-29T02:19:04;21.00;33.90
13086;DHT22;6609;49.882;8.664;2022-07-29T02:21:32;21.00;33.80
13086;DHT22;6609;49.882;8.664;2022-07-29T02:24:01;21.00;33.70
13086;DHT22;6609;49.882;8.664;2022-07-29T02:26:31;20.90;34.10
13086;DHT22;6609;49.882;8.664;2022-07-29T02:31:33;20.90;34.00
13086;DHT22;6609;49.882;8.664;2022-07-29T02:34:05;20.90;34.10
13086;DHT22;6609;49.882;8.664;2022-07-29T02:36:33;20.90;34.00
13086;DHT22;6609;49.882;8.664;2022-07-29T02:39:01;20.80;34.00
13086;DHT22;6609;49.882;8.664;2022-07-29T02:41:30;20.80;34.20
13086;DHT22;6609;49.882;8.664;2022-07-29T02:44:03;20.70;34.20
13086;DHT22;6609;49.882;8.664;2022-07-29T02:46:33;20.70;34.40
13086;DHT22;6609;49.882;8.664;2022-07-29T02:49:07;20.70;34.50
13086;DHT22;6609;49.882;8.664;2022-07-29T02:51:41;20.70;34.60
13086;DHT22;6609;49.882;8.664;2022-07-29T02:54:11;20.70;34.50
13086;DHT22;6609;49.882;8.664;2022-07-29T02:56:40;20.70;34.90
13086;DHT22;6609;49.882;8.664;2022-07-29T02:59:11;20.70;35.00
13086;DHT22;6609;49.882;8.664;2022-07-29T03:01:42;20.60;35.00
13086;DHT22;6609;49.882;8.664;2022-07-29T03:04:12;20.60;35.20
13086;DHT22;6609;49.882;8.664;2022-07-29T03:06:41;20.60;35.30
13086;DHT22;6609;49.882;8.664;2022-07-29T03:09:10;20.60;35.40
13086;DHT22;6609;49.882;8.664;2022-07-29T03:11:38;20.50;35.70
13086;DHT22;6609;49.882;8.664;2022-07-29T03:14:06;20.50;35.80
13086;DHT22;6609;49.882;8.664;2022-07-29T03:16:33;20.40;36.00
13086;DHT22;6609;49.882;8.664;2022-07-29T03:23:58;20.20;36.90
13086;DHT22;6609;49.882;8.664;2022-07-29T03:26:25;20.20;37.00
13086;DHT22;6609;49.882;8.664;2022-07-29T03:28:52;20.10;36.90
13086;DHT22;6609;49.882;8.664;2022-07-29T03:36:13;20.00;36.90
13086;DHT22;6609;49.882;8.664;2022-07-29T03:38:42;19.90;37.20
13086;DHT22;6609;49.882;8.664;2022-07-29T03:41:11;19.90;37.40
13086;DHT22;6609;49.882;8.664;2022-07-29T03:43:41;19.80;37.50
13086;DHT22;6609;49.882;8.664;2022-07-29T03:46:09;19.80;37.30
13086;DHT22;6609;49.882;8.664;2022-07-29T03:48:39;19.80;37.30
13086;DHT22;6609;49.882;8.664;2022-07-29T03:53:35;19.80;37.40
13086;DHT22;6609;49.882;8.664;2022-07-29T03:56:05;19.80;37.30
13086;DHT22;6609;49.882;8.664;2022-07-29T03:58:33;19.80;37.50
13086;DHT22;6609;49.882;8.664;2022-07-29T04:03:28;19.70;37.90
13086;DHT22;6609;49.882;8.664;2022-07-29T04:06:02;19.70;38.00
13086;DHT22;6609;49.882;8.664;2022-07-29T04:08:31;19.60;38.10
13086;DHT22;6609;49.882;8.664;2022-07-29T04:10:58;19.60;38.40
13086;DHT22;6609;49.882;8.664;2022-07-29T04:13:26;19.50;38.30
13086;DHT22;6609;49.882;8.664;2022-07-29T04:15:53;19.50;38.40
13086;DHT22;6609;49.882;8.664;2022-07-29T04:18:20;19.50;38.70
13086;DHT22;6609;49.882;8.664;2022-07-29T04:20:46;19.50;38.70
13086;DHT22;6609;49.882;8.664;2022-07-29T04:25:41;19.50;38.90
13086;DHT22;6609;49.882;8.664;2022-07-29T04:28:08;19.50;39.00
13086;DHT22;6609;49.882;8.664;2022-07-29T04:30:37;19.50;39.20
13086;DHT22;6609;49.882;8.664;2022-07-29T04:33:05;19.40;39.50
13086;DHT22;6609;49.882;8.664;2022-07-29T04:35:34;19.50;39.50
13086;DHT22;6609;49.882;8.664;2022-07-29T04:38:02;19.50;39.70
13086;DHT22;6609;49.882;8.664;2022-07-29T04:42:56;19.60;40.70
13086;DHT22;6609;49.882;8.664;2022-07-29T04:45:23;19.50;41.00
13086;DHT22;6609;49.882;8.664;2022-07-29T04:47:51;19.50;42.10
13086;DHT22;6609;49.882;8.664;2022-07-29T04:52:45;19.50;44.50
13086;DHT22;6609;49.882;8.664;2022-07-29T04:57:39;19.50;43.40
13086;DHT22;6609;49.882;8.664;2022-07-29T05:00:07;19.50;42.60
13086;DHT22;6609;49.882;8.664;2022-07-29T05:05:03;19.60;41.70
13086;DHT22;6609;49.882;8.664;2022-07-29T05:14:51;19.70;41.20
13086;DHT22;6609;49.882;8.664;2022-07-29T05:19:45;19.70;41.10
13086;DHT22;6609;49.882;8.664;2022-07-29T05:22:13;19.80;40.90
13086;DHT22;6609;49.882;8.664;2022-07-29T05:27:07;19.90;40.90
13086;DHT22;6609;49.882;8.664;2022-07-29T05:29:34;20.00;41.00
13086;DHT22;6609;49.882;8.664;2022-07-29T05:32:02;20.00;40.80
13086;DHT22;6609;49.882;8.664;2022-07-29T05:36:56;20.20;40.70
13086;DHT22;6609;49.882;8.664;2022-07-29T05:39:24;20.20;40.40
13086;DHT22;6609;49.882;8.664;2022-07-29T05:41:53;20.30;40.30
13086;DHT22;6609;49.882;8.664;2022-07-29T05:44:20;20.20;40.40
13086;DHT22;6609;49.882;8.664;2022-07-29T05:51:41;20.40;40.20
13086;DHT22;6609;49.882;8.664;2022-07-29T05:56:37;20.40;40.10
13086;DHT22;6609;49.882;8.664;2022-07-29T06:01:31;20.40;40.00
13086;DHT22;6609;49.882;8.664;2022-07-29T06:06:25;20.40;40.00
13086;DHT22;6609;49.882;8.664;2022-07-29T06:08:51;20.30;40.10
13086;DHT22;6609;49.882;8.664;2022-07-29T06:13:46;20.50;40.00
13086;DHT22;6609;49.882;8.664;2022-07-29T06:18:40;20.80;39.40
13086;DHT22;6609;49.882;8.664;2022-07-29T06:21:08;21.00;38.90
13086;DHT22;6609;49.882;8.664;2022-07-29T06:23:36;21.10;38.90
13086;DHT22;6609;49.882;8.664;2022-07-29T06:26:03;21.40;38.30
13086;DHT22;6609;49.882;8.664;2022-07-29T06:30:58;21.80;38.50
13086;DHT22;6609;49.882;8.664;2022-07-29T06:33:25;22.10;38.00
13086;DHT22;6609;49.882;8.664;2022-07-29T06:38:20;22.50;37.00
13086;DHT22;6609;49.882;8.664;2022-07-29T06:40:47;22.70;36.20
13086;DHT22;6609;49.882;8.664;2022-07-29T06:43:31;23.00;35.60
13086;DHT22;6609;49.882;8.664;2022-07-29T06:46:02;23.10;34.10
13086;DHT22;6609;49.882;8.664;2022-07-29T06:48:29;23.20;34.20
13086;DHT22;6609;49.882;8.664;2022-07-29T06:50:56;23.50;34.10
13086;DHT22;6609;49.882;8.664;2022-07-29T06:53:23;23.80;33.20
13086;DHT22;6609;49.882;8.664;2022-07-29T06:55:50;24.00;32.10
13086;DHT22;6609;49.882;8.664;2022-07-29T06:58:16;24.20;30.90
13086;DHT22;6609;49.882;8.664;2022-07-29T07:00:45;24.50;30.20
13086;DHT22;6609;49.882;8.664;2022-07-29T07:03:14;24.50;29.70
13086;DHT22;6609;49.882;8.664;2022-07-29T07:05:40;24.70;29.50
13086;DHT22;6609;49.882;8.664;2022-07-29T07:10:34;25.00;29.30
13086;DHT22;6609;49.882;8.664;2022-07-29T07:13:01;25.00;28.60
13086;DHT22;6609;49.882;8.664;2022-07-29T07:15:29;25.10;28.20
13086;DHT22;6609;49.882;8.664;2022-07-29T07:17:56;25.20;28.40
13086;DHT22;6609;49.882;8.664;2022-07-29T07:20:25;25.40;27.90
13086;DHT22;6609;49.882;8.664;2022-07-29T07:22:52;25.80;28.10
13086;DHT22;6609;49.882;8.664;2022-07-29T07:25:19;26.10;27.60
13086;DHT22;6609;49.882;8.664;2022-07-29T07:27:45;26.40;26.80
13086;DHT22;6609;49.882;8.664;2022-07-29T07:30:13;26.60;26.50
13086;DHT22;6609;49.882;8.664;2022-07-29T07:32:39;26.70;25.90
13086;DHT22;6609;49.882;8.664;2022-07-29T07:35:08;27.00;25.60
13086;DHT22;6609;49.882;8.664;2022-07-29T07:37:36;27.20;25.60
13086;DHT22;6609;49.882;8.664;2022-07-29T07:40:04;27.40;25.70
13086;DHT22;6609;49.882;8.664;2022-07-29T07:42:31;27.60;25.10
13086;DHT22;6609;49.882;8.664;2022-07-29T07:47:25;28.00;24.50
13086;DHT22;6609;49.882;8.664;2022-07-29T07:49:52;27.80;24.60
13086;DHT22;6609;49.882;8.664;2022-07-29T07:52:20;27.50;25.00
13086;DHT22;6609;49.882;8.664;2022-07-29T07:54:49;27.20;25.60
13086;DHT22;6609;49.882;8.664;2022-07-29T07:57:16;26.90;25.90
13086;DHT22;6609;49.882;8.664;2022-07-29T08:02:10;26.60;26.70
13086;DHT22;6609;49.882;8.664;2022-07-29T08:07:06;26.70;27.30
13086;DHT22;6609;49.882;8.664;2022-07-29T08:09:34;26.70;27.30
13086;DHT22;6609;49.882;8.664;2022-07-29T08:12:02;26.70;27.60
13086;DHT22;6609;49.882;8.664;2022-07-29T08:14:31;26.80;27.90
13086;DHT22;6609;49.882;8.664;2022-07-29T08:16:57;26.80;28.70
13086;DHT22;6609;49.882;8.664;2022-07-29T08:19:24;27.00;28.80
13086;DHT22;6609;49.882;8.664;2022-07-29T08:21:51;27.20;28.90
13086;DHT22;6609;49.882;8.664;2022-07-29T08:24:18;27.20;28.90
13086;DHT22;6609;49.882;8.664;2022-07-29T08:27:04;27.00;28.80
13086;DHT22;6609;49.882;8.664;2022-07-29T08:31:58;27.10;29.20
13086;DHT22;6609;49.882;8.664;2022-07-29T08:34:25;27.20;29.30
13086;DHT22;6609;49.882;8.664;2022-07-29T08:39:19;27.50;29.70
13086;DHT22;6609;49.882;8.664;2022-07-29T08:44:15;27.80;29.20
13086;DHT22;6609;49.882;8.664;2022-07-29T08:46:42;27.90;29.30
13086;DHT22;6609;49.882;8.664;2022-07-29T08:49:09;27.80;29.20
13086;DHT22;6609;49.882;8.664;2022-07-29T08:51:37;27.70;29.90
13086;DHT22;6609;49.882;8.664;2022-07-29T08:54:05;27.70;30.50
13086;DHT22;6609;49.882;8.664;2022-07-29T08:56:33;27.50;31.50
13086;DHT22;6609;49.882;8.664;2022-07-29T08:59:03;27.60;32.00
13086;DHT22;6609;49.882;8.664;2022-07-29T09:01:33;27.80;32.50
13086;DHT22;6609;49.882;8.664;2022-07-29T09:04:01;28.00;32.00
13086;DHT22;6609;49.882;8.664;2022-07-29T09:06:31;27.80;32.00
13086;DHT22;6609;49.882;8.664;2022-07-29T09:08:59;27.70;31.80
13086;DHT22;6609;49.882;8.664;2022-07-29T09:11:27;27.60;32.00
13086;DHT22;6609;49.882;8.664;2022-07-29T09:13:54;28.00;32.20
13086;DHT22;6609;49.882;8.664;2022-07-29T09:18:49;28.50;29.60
13086;DHT22;6609;49.882;8.664;2022-07-29T09:21:17;28.70;29.70
13086;DHT22;6609;49.882;8.664;2022-07-29T09:24:04;29.00;28.60
13086;DHT22;6609;49.882;8.664;2022-07-29T09:26:33;29.10;28.00
13086;DHT22;6609;49.882;8.664;2022-07-29T09:29:07;29.30;27.60
13086;DHT22;6609;49.882;8.664;2022-07-29T09:31:37;29.50;27.60
13086;DHT22;6609;49.882;8.664;2022-07-29T09:34:06;29.70;27.50
13086;DHT22;6609;49.882;8.664;2022-07-29T09:36:39;29.70;26.80
13086;DHT22;6609;49.882;8.664;2022-07-29T09:41:44;29.80;26.40
13086;DHT22;6609;49.882;8.664;2022-07-29T09:46:40;30.20;26.70
13086;DHT22;6609;49.882;8.664;2022-07-29T09:49:11;30.50;26.00
13086;DHT22;6609;49.882;8.664;2022-07-29T09:51:38;30.90;25.90
13086;DHT22;6609;49.882;8.664;2022-07-29T09:54:21;31.40;25.90
13086;DHT22;6609;49.882;8.664;2022-07-29T10:04:10;33.40;22.20
13086;DHT22;6609;49.882;8.664;2022-07-29T10:06:55;33.90;22.80
13086;DHT22;6609;49.882;8.664;2022-07-29T10:09:22;34.20;21.00
13086;DHT22;6609;49.882;8.664;2022-07-29T10:12:06;34.40;20.50
13086;DHT22;6609;49.882;8.664;2022-07-29T10:14:33;33.90;20.90
13086;DHT22;6609;49.882;8.664;2022-07-29T10:17:01;33.80;20.80
13086;DHT22;6609;49.882;8.664;2022-07-29T10:19:30;33.80;20.80
13086;DHT22;6609;49.882;8.664;2022-07-29T10:21:58;33.80;20.80
13086;DHT22;6609;49.882;8.664;2022-07-29T10:24:27;34.30;20.60
13086;DHT22;6609;49.882;8.664;2022-07-29T10:26:55;34.90;19.70
13086;DHT22;6609;49.882;8.664;2022-07-29T10:31:58;34.90;18.40
13086;DHT22;6609;49.882;8.664;2022-07-29T10:34:36;34.60;18.60
13086;DHT22;6609;49.882;8.664;2022-07-29T10:37:18;34.00;20.70
13086;DHT22;6609;49.882;8.664;2022-07-29T10:39:55;33.80;20.80
13086;DHT22;6609;49.882;8.664;2022-07-29T10:42:27;34.40;20.40
13086;DHT22;6609;49.882;8.664;2022-07-29T10:44:56;34.60;18.80
13086;DHT22;6609;49.882;8.664;2022-07-29T10:49:57;34.80;19.10
13086;DHT22;6609;49.882;8.664;2022-07-29T10:52:24;35.20;19.00
13086;DHT22;6609;49.882;8.664;2022-07-29T10:54:53;35.60;18.40
13086;DHT22;6609;49.882;8.664;2022-07-29T10:57:26;35.60;17.40
13086;DHT22;6609;49.882;8.664;2022-07-29T11:00:29;35.50;18.90
13086;DHT22;6609;49.882;8.664;2022-07-29T11:02:56;36.10;17.60
13086;DHT22;6609;49.882;8.664;2022-07-29T11:05:25;35.80;16.90
13086;DHT22;6609;49.882;8.664;2022-07-29T11:08:20;36.00;18.30
13086;DHT22;6609;49.882;8.664;2022-07-29T11:10:49;36.50;18.00
13086;DHT22;6609;49.882;8.664;2022-07-29T11:13:45;36.90;18.60
13086;DHT22;6609;49.882;8.664;2022-07-29T11:21:43;37.60;14.90
13086;DHT22;6609;49.882;8.664;2022-07-29T11:24:12;37.20;14.80
13086;DHT22;6609;49.882;8.664;2022-07-29T11:26:40;36.80;15.40
13086;DHT22;6609;49.882;8.664;2022-07-29T11:29:16;36.40;16.20
13086;DHT22;6609;49.882;8.664;2022-07-29T11:31:47;36.30;16.10
13086;DHT22;6609;49.882;8.664;2022-07-29T11:37:23;36.90;15.30
13086;DHT22;6609;49.882;8.664;2022-07-29T11:40:24;36.70;15.60
13086;DHT22;6609;49.882;8.664;2022-07-29T11:42:52;36.80;15.20
13086;DHT22;6609;49.882;8.664;2022-07-29T11:45:23;36.60;15.20
13086;DHT22;6609;49.882;8.664;2022-07-29T11:47:56;35.90;16.00
13086;DHT22;6609;49.882;8.664;2022-07-29T11:50:31;35.80;16.50
13086;DHT22;6609;49.882;8.664;2022-07-29T11:53:00;35.50;16.80
13086;DHT22;6609;49.882;8.664;2022-07-29T11:55:28;35.40;17.50
13086;DHT22;6609;49.882;8.664;2022-07-29T11:57:58;35.60;17.90
13086;DHT22;6609;49.882;8.664;2022-07-29T12:00:30;35.50;18.10
13086;DHT22;6609;49.882;8.664;2022-07-29T12:02:59;35.20;18.40
13086;DHT22;6609;49.882;8.664;2022-07-29T12:05:38;34.80;18.80
13086;DHT22;6609;49.882;8.664;2022-07-29T12:08:09;34.40;19.80
13086;DHT22;6609;49.882;8.664;2022-07-29T12:10:37;34.10;19.40
13086;DHT22;6609;49.882;8.664;2022-07-29T12:13:04;33.80;19.60
13086;DHT22;6609;49.882;8.664;2022-07-29T12:17:58;33.90;21.00
13086;DHT22;6609;49.882;8.664;2022-07-29T12:20:26;33.70;20.40
13086;DHT22;6609;49.882;8.664;2022-07-29T12:25:23;32.70;21.50
13086;DHT22;6609;49.882;8.664;2022-07-29T12:28:00;32.40;22.60
13086;DHT22;6609;49.882;8.664;2022-07-29T12:30:42;32.00;22.20
13086;DHT22;6609;49.882;8.664;2022-07-29T12:33:15;31.60;22.70
13086;DHT22;6609;49.882;8.664;2022-07-29T12:35:44;31.50;23.30
13086;DHT22;6609;49.882;8.664;2022-07-29T12:38:11;31.40;23.60
13086;DHT22;6609;49.882;8.664;2022-07-29T12:40:40;31.30;24.40
13086;DHT22;6609;49.882;8.664;2022-07-29T12:43:09;31.20;24.40
13086;DHT22;6609;49.882;8.664;2022-07-29T12:45:36;31.20;24.10
13086;DHT22;6609;49.882;8.664;2022-07-29T12:48:04;31.10;24.50
13086;DHT22;6609;49.882;8.664;2022-07-29T12:50:34;31.00;24.80
13086;DHT22;6609;49.882;8.664;2022-07-29T12:53:12;31.00;24.90
13086;DHT22;6609;49.882;8.664;2022-07-29T12:55:42;31.00;24.40
13086;DHT22;6609;49.882;8.664;2022-07-29T12:58:09;30.90;24.20
13086;DHT22;6609;49.882;8.664;2022-07-29T13:00:36;30.70;23.90
13086;DHT22;6609;49.882;8.664;2022-07-29T13:03:03;30.60;24.20
13086;DHT22;6609;49.882;8.664;2022-07-29T13:05:40;30.50;24.80
13086;DHT22;6609;49.882;8.664;2022-07-29T13:08:11;30.50;24.60
13086;DHT22;6609;49.882;8.664;2022-07-29T13:10:38;30.50;24.50
13086;DHT22;6609;49.882;8.664;2022-07-29T13:13:07;30.40;24.40
13086;DHT22;6609;49.882;8.664;2022-07-29T13:15:35;30.40;25.00
13086;DHT22;6609;49.882;8.664;2022-07-29T13:18:03;30.40;24.90
13086;DHT22;6609;49.882;8.664;2022-07-29T13:20:30;30.40;24.90
13086;DHT22;6609;49.882;8.664;2022-07-29T13:22:57;30.30;24.70
13086;DHT22;6609;49.882;8.664;2022-07-29T13:25:26;30.20;24.70
13086;DHT22;6609;49.882;8.664;2022-07-29T13:27:54;30.20;24.70
13086;DHT22;6609;49.882;8.664;2022-07-29T13:30:22;30.10;24.60
13086;DHT22;6609;49.882;8.664;2022-07-29T13:32:49;30.10;25.00
13086;DHT22;6609;49.882;8.664;2022-07-29T13:35:17;30.10;25.00
13086;DHT22;6609;49.882;8.664;2022-07-29T13:37:44;30.30;25.80
13086;DHT22;6609;49.882;8.664;2022-07-29T13:40:11;30.50;25.10
13086;DHT22;6609;49.882;8.664;2022-07-29T13:42:39;30.60;24.90
13086;DHT22;6609;49.882;8.664;2022-07-29T13:45:07;30.60;24.70
13086;DHT22;6609;49.882;8.664;2022-07-29T13:47:35;30.60;25.00
13086;DHT22;6609;49.882;8.664;2022-07-29T13:50:03;30.70;25.90
13086;DHT22;6609;49.882;8.664;2022-07-29T13:52:30;30.80;24.80
13086;DHT22;6609;49.882;8.664;2022-07-29T13:57:24;30.90;22.70
13086;DHT22;6609;49.882;8.664;2022-07-29T13:59:51;30.80;23.50
13086;DHT22;6609;49.882;8.664;2022-07-29T14:04:46;31.00;23.80
13086;DHT22;6609;49.882;8.664;2022-07-29T14:07:13;31.00;24.40
13086;DHT22;6609;49.882;8.664;2022-07-29T14:09:39;31.00;24.10
13086;DHT22;6609;49.882;8.664;2022-07-29T14:12:07;31.00;22.60
13086;DHT22;6609;49.882;8.664;2022-07-29T14:17:02;30.90;23.40
13086;DHT22;6609;49.882;8.664;2022-07-29T14:19:31;30.90;23.50
13086;DHT22;6609;49.882;8.664;2022-07-29T14:22:02;30.90;24.00
13086;DHT22;6609;49.882;8.664;2022-07-29T14:24:29;30.90;23.90
13086;DHT22;6609;49.882;8.664;2022-07-29T14:29:23;30.80;23.70
13086;DHT22;6609;49.882;8.664;2022-07-29T14:31:50;30.70;23.60
13086;DHT22;6609;49.882;8.664;2022-07-29T14:34:17;30.60;23.60
13086;DHT22;6609;49.882;8.664;2022-07-29T14:36:44;30.50;23.10
13086;DHT22;6609;49.882;8.664;2022-07-29T14:39:12;30.50;23.20
13086;DHT22;6609;49.882;8.664;2022-07-29T14:44:08;30.40;23.20
13086;DHT22;6609;49.882;8.664;2022-07-29T14:49:02;30.30;23.70
13086;DHT22;6609;49.882;8.664;2022-07-29T14:53:55;30.20;24.20
13086;DHT22;6609;49.882;8.664;2022-07-29T14:56:24;30.10;24.40
13086;DHT22;6609;49.882;8.664;2022-07-29T15:01:17;30.20;24.60
13086;DHT22;6609;49.882;8.664;2022-07-29T15:03:44;30.20;24.60
13086;DHT22;6609;49.882;8.664;2022-07-29T15:08:38;30.10;24.90
13086;DHT22;6609;49.882;8.664;2022-07-29T15:11:05;30.10;25.70
13086;DHT22;6609;49.882;8.664;2022-07-29T15:13:34;30.20;26.00
13086;DHT22;6609;49.882;8.664;2022-07-29T15:16:01;30.20;26.00
13086;DHT22;6609;49.882;8.664;2022-07-29T15:20:55;30.10;26.30
13086;DHT22;6609;49.882;8.664;2022-07-29T15:25:49;30.00;26.40
13086;DHT22;6609;49.882;8.664;2022-07-29T15:30:44;30.00;27.20
13086;DHT22;6609;49.882;8.664;2022-07-29T15:35:38;30.00;27.70
13086;DHT22;6609;49.882;8.664;2022-07-29T15:38:05;30.00;27.20
13086;DHT22;6609;49.882;8.664;2022-07-29T15:42:59;29.90;27.50
13086;DHT22;6609;49.882;8.664;2022-07-29T15:45:35;29.80;27.20
13086;DHT22;6609;49.882;8.664;2022-07-29T15:48:04;29.70;27.30
13086;DHT22;6609;49.882;8.664;2022-07-29T15:50:31;29.70;27.40
13086;DHT22;6609;49.882;8.664;2022-07-29T15:55:25;29.70;27.00
13086;DHT22;6609;49.882;8.664;2022-07-29T16:00:20;29.80;26.60
13086;DHT22;6609;49.882;8.664;2022-07-29T16:05:15;29.90;26.60
13086;DHT22;6609;49.882;8.664;2022-07-29T16:12:36;29.50;28.80
13086;DHT22;6609;49.882;8.664;2022-07-29T16:15:03;29.30;29.40
13086;DHT22;6609;49.882;8.664;2022-07-29T16:17:30;29.00;29.60
13086;DHT22;6609;49.882;8.664;2022-07-29T16:22:25;28.50;30.50
13086;DHT22;6609;49.882;8.664;2022-07-29T16:24:52;28.30;31.00
13086;DHT22;6609;49.882;8.664;2022-07-29T16:27:18;28.10;31.60
13086;DHT22;6609;49.882;8.664;2022-07-29T16:32:16;27.70;33.30
13086;DHT22;6609;49.882;8.664;2022-07-29T16:34:43;27.50;34.10
13086;DHT22;6609;49.882;8.664;2022-07-29T16:37:10;27.30;34.90
13086;DHT22;6609;49.882;8.664;2022-07-29T16:39:38;27.20;35.80
13086;DHT22;6609;49.882;8.664;2022-07-29T16:42:05;27.10;36.60
13086;DHT22;6609;49.882;8.664;2022-07-29T16:44:31;27.00;37.10
13086;DHT22;6609;49.882;8.664;2022-07-29T16:46:59;26.90;36.70
13086;DHT22;6609;49.882;8.664;2022-07-29T16:49:25;26.70;37.50
13086;DHT22;6609;49.882;8.664;2022-07-29T16:51:52;26.70;38.10
13086;DHT22;6609;49.882;8.664;2022-07-29T16:56:48;26.50;38.00
13086;DHT22;6609;49.882;8.664;2022-07-29T16:59:14;26.40;38.40
13086;DHT22;6609;49.882;8.664;2022-07-29T17:01:41;26.40;38.60
13086;DHT22;6609;49.882;8.664;2022-07-29T17:06:37;26.30;38.70
13086;DHT22;6609;49.882;8.664;2022-07-29T17:09:06;26.30;38.70
13086;DHT22;6609;49.882;8.664;2022-07-29T17:11:34;26.30;38.80
13086;DHT22;6609;49.882;8.664;2022-07-29T17:14:02;26.20;37.70
13086;DHT22;6609;49.882;8.664;2022-07-29T17:18:56;25.90;37.60
13086;DHT22;6609;49.882;8.664;2022-07-29T17:23:51;25.60;36.30
13086;DHT22;6609;49.882;8.664;2022-07-29T17:28:45;25.40;36.80
13086;DHT22;6609;49.882;8.664;2022-07-29T17:31:14;25.40;36.70
13086;DHT22;6609;49.882;8.664;2022-07-29T17:38:53;25.40;36.70
13086;DHT22;6609;49.882;8.664;2022-07-29T17:41:20;25.30;36.90
13086;DHT22;6609;49.882;8.664;2022-07-29T17:48:47;25.20;37.40
13086;DHT22;6609;49.882;8.664;2022-07-29T17:58:35;25.10;38.10
13086;DHT22;6609;49.882;8.664;2022-07-29T18:18:15;24.90;43.40
13086;DHT22;6609;49.882;8.664;2022-07-29T18:20:44;24.70;43.70
13086;DHT22;6609;49.882;8.664;2022-07-29T18:28:06;24.50;47.30
13086;DHT22;6609;49.882;8.664;2022-07-29T18:33:01;24.10;48.10
13086;DHT22;6609;49.882;8.664;2022-07-29T18:35:29;23.80;49.70
13086;DHT22;6609;49.882;8.664;2022-07-29T18:37:57;23.50;51.50
13086;DHT22;6609;49.882;8.664;2022-07-29T18:45:18;22.90;55.10
13086;DHT22;6609;49.882;8.664;2022-07-29T18:47:45;22.80;55.30
13086;DHT22;6609;49.882;8.664;2022-07-29T18:50:13;22.90;55.30
13086;DHT22;6609;49.882;8.664;2022-07-29T18:52:41;22.90;55.40
13086;DHT22;6609;49.882;8.664;2022-07-29T18:55:09;22.90;55.10
13086;DHT22;6609;49.882;8.664;2022-07-29T18:57:35;23.00;55.30
13086;DHT22;6609;49.882;8.664;2022-07-29T19:00:03;23.00;55.20
13086;DHT22;6609;49.882;8.664;2022-07-29T19:04:58;22.90;55.50
13086;DHT22;6609;49.882;8.664;2022-07-29T19:07:25;22.90;56.20
13086;DHT22;6609;49.882;8.664;2022-07-29T19:12:20;22.70;56.60
13086;DHT22;6609;49.882;8.664;2022-07-29T19:19:41;22.70;56.80
13086;DHT22;6609;49.882;8.664;2022-07-29T19:22:08;22.70;56.40
13086;DHT22;6609;49.882;8.664;2022-07-29T19:34:27;22.50;56.10
13086;DHT22;6609;49.882;8.664;2022-07-29T19:39:20;22.40;56.50
13086;DHT22;6609;49.882;8.664;2022-07-29T19:41:47;22.30;56.70
13086;DHT22;6609;49.882;8.664;2022-07-29T19:44:14;22.30;56.80
13086;DHT22;6609;49.882;8.664;2022-07-29T19:46:42;22.30;56.80
13086;DHT22;6609;49.882;8.664;2022-07-29T19:49:10;22.30;56.90
13086;DHT22;6609;49.882;8.664;2022-07-29T19:51:38;22.30;57.10
13086;DHT22;6609;49.882;8.664;2022-07-29T19:56:32;22.30;57.90
13086;DHT22;6609;49.882;8.664;2022-07-29T19:58:59;22.20;58.30
13086;DHT22;6609;49.882;8.664;2022-07-29T20:11:16;22.20;59.30
13086;DHT22;6609;49.882;8.664;2022-07-29T20:28:27;22.00;60.60
13086;DHT22;6609;49.882;8.664;2022-07-29T20:35:47;21.80;61.50
13086;DHT22;6609;49.882;8.664;2022-07-29T20:40:42;21.90;61.80
13086;DHT22;6609;49.882;8.664;2022-07-29T20:43:09;21.90;62.10
13086;DHT22;6609;49.882;8.664;2022-07-29T20:48:04;21.80;62.90
13086;DHT22;6609;49.882;8.664;2022-07-29T20:50:31;21.80;63.70
13086;DHT22;6609;49.882;8.664;2022-07-29T20:52:58;21.70;64.70
13086;DHT22;6609;49.882;8.664;2022-07-29T20:55:26;21.60;65.10
13086;DHT22;6609;49.882;8.664;2022-07-29T20:57:53;21.50;65.60
13086;DHT22;6609;49.882;8.664;2022-07-29T21:00:26;21.40;65.90
13086;DHT22;6609;49.882;8.664;2022-07-29T21:07:47;21.30;67.50
13086;DHT22;6609;49.882;8.664;2022-07-29T21:15:11;21.20;68.50
13086;DHT22;6609;49.882;8.664;2022-07-29T21:17:40;21.10;69.00
13086;DHT22;6609;49.882;8.664;2022-07-29T21:27:34;20.70;72.50